createdAt,value
2022-08-07T00:02:36.031Z,37.36
2022-08-07T00:04:11.226Z,37.41
2022-08-07T00:06:51.562Z,37.29
2022-08-07T00:09:22.654Z,37.28
2022-08-07T00:11:55.959Z,37.53
2022-08-07T00:14:31.250Z,37.43
2022-08-07T00:17:02.559Z,37.55
2022-08-07T00:20:00.046Z,37.58
2022-08-07T00:22:24.559Z,37.74
2022-08-07T00:25:05.700Z,37.62
2022-08-07T00:27:52.643Z,37.53
2022-08-07T00:30:27.289Z,37.45
2022-08-07T00:32:57.592Z,37.33
2022-08-07T00:35:30.027Z,37.30
2022-08-07T00:37:59.646Z,37.21
2022-08-07T00:40:39.604Z,37.41
2022-08-07T00:43:59.683Z,37.14
2022-08-07T00:45:59.372Z,37.09
2022-08-07T00:48:32.039Z,37.22
2022-08-07T00:51:03.085Z,37.09
2022-08-07T00:53:38.912Z,37.13
2022-08-07T00:56:18.824Z,37.25
2022-08-07T00:58:49.753Z,36.96
2022-08-07T01:01:20.488Z,36.99
2022-08-07T01:03:56.440Z,36.96
2022-08-07T01:06:29.045Z,36.95
2022-08-07T01:09:01.095Z,36.90
2022-08-07T01:12:27.578Z,36.84
2022-08-07T01:14:21.493Z,37.07
2022-08-07T01:16:57.752Z,37.21
2022-08-07T01:19:27.959Z,37.32
2022-08-07T01:22:04.091Z,37.16
2022-08-07T01:24:38.189Z,37.21
2022-08-07T01:27:19.744Z,37.22
2022-08-07T01:29:50.772Z,37.12
2022-08-07T01:32:19.885Z,37.26
2022-08-07T01:34:52.097Z,37.41
2022-08-07T01:37:22.757Z,37.57
2022-08-07T01:39:51.668Z,37.69
2022-08-07T01:42:37.771Z,37.96
2022-08-07T01:45:17.752Z,38.04
2022-08-07T01:48:20.647Z,38.00
2022-08-07T01:50:37.961Z,37.97
2022-08-07T01:53:20.846Z,37.99
2022-08-07T01:55:56.584Z,38.21
2022-08-07T01:58:33.188Z,38.03
2022-08-07T02:01:25.346Z,38.28
2022-08-07T02:04:04.399Z,37.94
2022-08-07T02:06:35.658Z,38.37
2022-08-07T02:09:11.652Z,38.28
2022-08-07T02:12:17.806Z,38.27
2022-08-07T02:14:51.344Z,38.13
2022-08-07T02:17:27.484Z,37.96
2022-08-07T02:20:04.874Z,38.44
2022-08-07T02:22:41.412Z,38.11
2022-08-07T02:25:17.624Z,38.31
2022-08-07T02:27:52.122Z,38.22
2022-08-07T02:30:22.083Z,38.15
2022-08-07T02:33:00.679Z,37.85
2022-08-07T02:36:27.112Z,38.35
2022-08-07T02:38:32.685Z,38.14
2022-08-07T02:41:04.433Z,38.07
2022-08-07T02:43:34.590Z,38.24
2022-08-07T02:46:07.068Z,37.89
2022-08-07T02:48:35.701Z,38.20
2022-08-07T02:51:29.247Z,38.04
2022-08-07T02:54:01.336Z,37.96
2022-08-07T02:56:34.128Z,37.96
2022-08-07T02:59:05.872Z,37.93
2022-08-07T03:01:35.427Z,38.12
2022-08-07T03:04:07.826Z,37.96
2022-08-07T03:06:44.736Z,37.90
2022-08-07T03:09:43.329Z,37.98
2022-08-07T03:12:14.205Z,38.30
2022-08-07T03:14:52.968Z,38.32
2022-08-07T03:17:22.220Z,38.21
2022-08-07T03:19:54.724Z,38.22
2022-08-07T03:22:29.652Z,38.15
2022-08-07T03:25:00.842Z,37.75
2022-08-07T03:27:58.828Z,38.00
2022-08-07T03:30:20.689Z,37.95
2022-08-07T03:32:59.048Z,38.16
2022-08-07T03:35:43.757Z,38.18
2022-08-07T03:38:21.431Z,37.72
2022-08-07T03:41:00.480Z,37.54
2022-08-07T03:43:32.215Z,37.98
2022-08-07T03:46:03.616Z,37.53
2022-08-07T03:49:01.924Z,37.58
2022-08-07T03:51:30.733Z,37.66
2022-08-07T03:54:36.343Z,37.41
2022-08-07T03:57:07.118Z,37.66
2022-08-07T03:59:46.538Z,37.71
2022-08-07T04:02:27.369Z,37.40
2022-08-07T04:04:56.014Z,37.24
2022-08-07T04:07:26.031Z,37.31
2022-08-07T04:10:05.911Z,37.20
2022-08-07T04:12:44.336Z,37.53
2022-08-07T04:15:14.961Z,37.44
2022-08-07T04:18:31.812Z,37.40
2022-08-07T04:20:35.360Z,37.31
2022-08-07T04:23:06.133Z,37.27
2022-08-07T04:25:40.841Z,37.19
2022-08-07T04:28:13.540Z,37.07
2022-08-07T04:30:55.512Z,37.07
2022-08-07T04:33:26.818Z,37.41
2022-08-07T04:35:56.270Z,37.07
2022-08-07T04:38:27.861Z,37.11
2022-08-07T04:40:57.434Z,37.42
2022-08-07T04:44:09.888Z,37.43
2022-08-07T04:46:34.844Z,37.55
2022-08-07T04:49:18.378Z,37.23
2022-08-07T04:52:04.735Z,37.48
2022-08-07T04:54:41.047Z,37.13
2022-08-07T04:58:11.334Z,37.37
2022-08-07T05:00:30.161Z,37.53
2022-08-07T05:03:17.203Z,37.31
2022-08-07T05:06:19.709Z,37.16
2022-08-07T05:09:01.168Z,37.03
2022-08-07T05:11:58.774Z,37.02
2022-08-07T05:14:54.209Z,37.10
2022-08-07T05:18:00.368Z,36.95
2022-08-07T05:20:15.888Z,37.23
2022-08-07T05:22:48.853Z,37.04
2022-08-07T05:25:25.546Z,36.93
2022-08-07T05:28:20.519Z,36.70
2022-08-07T05:30:54.344Z,36.72
2022-08-07T05:33:24.882Z,36.57
2022-08-07T05:35:57.465Z,36.77
2022-08-07T05:39:00.839Z,36.68
2022-08-07T05:41:18.232Z,36.77
2022-08-07T05:44:08.787Z,36.65
2022-08-07T05:46:41.349Z,36.71
2022-08-07T05:49:14.351Z,36.82
2022-08-07T05:51:46.650Z,36.63
2022-08-07T05:54:44.264Z,36.22
2022-08-07T05:57:07.382Z,36.64
2022-08-07T05:59:55.803Z,36.52
2022-08-07T06:02:30.815Z,36.41
2022-08-07T06:05:04.408Z,36.55
2022-08-07T06:08:29.508Z,36.41
2022-08-07T06:10:24.599Z,35.99
2022-08-07T06:12:53.129Z,36.21
2022-08-07T06:15:39.015Z,36.15
2022-08-07T06:18:13.902Z,36.01
2022-08-07T06:20:50.699Z,35.99
2022-08-07T06:24:38.179Z,35.86
2022-08-07T06:26:27.247Z,35.91
2022-08-07T06:29:01.148Z,35.78
2022-08-07T06:31:46.974Z,35.40
2022-08-07T06:34:19.734Z,35.12
2022-08-07T06:36:52.061Z,34.83
2022-08-07T06:40:16.130Z,35.05
2022-08-07T06:42:19.282Z,34.77
2022-08-07T06:44:51.130Z,34.53
2022-08-07T06:47:21.128Z,34.25
2022-08-07T06:49:52.135Z,33.91
2022-08-07T06:52:35.525Z,33.76
2022-08-07T06:55:31.289Z,33.85
2022-08-07T06:58:02.280Z,33.62
2022-08-07T07:00:38.278Z,33.15
2022-08-07T07:03:08.633Z,33.30
2022-08-07T07:06:04.395Z,32.49
2022-08-07T07:08:33.269Z,32.97
2022-08-07T07:11:13.771Z,32.68
2022-08-07T07:14:01.417Z,33.01
2022-08-07T07:16:50.061Z,32.97
2022-08-07T07:19:57.223Z,32.69
2022-08-07T07:22:36.772Z,32.53
2022-08-07T07:26:33.145Z,32.48
2022-08-07T07:28:29.460Z,32.61
2022-08-07T07:31:07.921Z,32.77
2022-08-07T07:33:39.498Z,31.87
2022-08-07T07:36:12.752Z,32.19
2022-08-07T07:38:46.220Z,31.54
2022-08-07T07:41:19.330Z,31.81
2022-08-07T07:44:17.239Z,31.73
2022-08-07T07:46:55.348Z,31.43
2022-08-07T07:50:34.944Z,32.09
2022-08-07T07:52:22.046Z,31.51
2022-08-07T07:54:52.498Z,31.64
2022-08-07T07:57:51.560Z,32.01
2022-08-07T08:00:28.808Z,31.92
2022-08-07T08:03:06.162Z,31.84
2022-08-07T08:05:50.875Z,31.50
2022-08-07T08:08:35.112Z,31.61
2022-08-07T08:11:16.029Z,31.11
2022-08-07T08:13:52.910Z,31.15
2022-08-07T08:16:31.047Z,30.97
2022-08-07T08:19:09.873Z,31.34
2022-08-07T08:22:07.828Z,30.65
2022-08-07T08:25:09.504Z,30.86
2022-08-07T08:27:57.178Z,30.91
2022-08-07T08:30:34.844Z,31.03
2022-08-07T08:33:10.357Z,30.91
2022-08-07T08:35:50.740Z,30.93
2022-08-07T08:38:25.882Z,30.53
2022-08-07T08:41:06.431Z,30.43
2022-08-07T08:43:55.866Z,30.61
2022-08-07T08:46:38.520Z,30.39
2022-08-07T08:49:18.231Z,30.53
2022-08-07T08:52:13.694Z,30.10
2022-08-07T08:54:50.439Z,30.34
2022-08-07T08:57:36.096Z,30.17
2022-08-07T09:00:08.499Z,30.26
2022-08-07T09:02:52.410Z,30.04
2022-08-07T09:05:49.321Z,30.25
2022-08-07T09:08:34.242Z,29.91
2022-08-07T09:11:24.887Z,29.95
2022-08-07T09:14:13.550Z,30.22
2022-08-07T09:17:01.321Z,29.98
2022-08-07T09:19:55.207Z,29.79
2022-08-07T09:24:33.302Z,29.91
2022-08-07T09:25:54.246Z,29.83
2022-08-07T09:30:01.829Z,29.03
2022-08-07T09:31:33.711Z,29.22
2022-08-07T09:34:21.517Z,28.93
2022-08-07T09:37:01.695Z,29.11
2022-08-07T09:39:54.149Z,29.36
2022-08-07T09:42:41.853Z,29.37
2022-08-07T09:47:27.738Z,29.23
2022-08-07T09:48:30.144Z,29.26
2022-08-07T09:52:15.458Z,29.31
2022-08-07T09:54:27.179Z,29.58
2022-08-07T09:57:46.702Z,29.89
2022-08-07T10:00:18.783Z,29.83
2022-08-07T10:04:14.944Z,29.95
2022-08-07T10:07:52.880Z,29.75
2022-08-07T10:11:07.745Z,29.30
2022-08-07T10:13:55.588Z,28.67
2022-08-07T10:16:54.847Z,28.33
2022-08-07T10:19:50.145Z,27.98
2022-08-07T10:22:50.894Z,27.75
2022-08-07T10:25:42.832Z,28.28
2022-08-07T10:28:37.307Z,27.19
2022-08-07T10:31:38.973Z,27.34
2022-08-07T10:34:32.428Z,27.24
2022-08-07T10:37:22.332Z,26.71
2022-08-07T10:40:08.888Z,26.79
2022-08-07T10:42:44.014Z,26.45
2022-08-07T10:45:45.404Z,26.84
2022-08-07T10:48:36.173Z,26.38
2022-08-07T10:51:16.378Z,26.23
2022-08-07T10:53:51.896Z,26.44
2022-08-07T10:56:37.670Z,26.13
2022-08-07T10:59:22.193Z,26.47
2022-08-07T11:02:05.370Z,26.02
2022-08-07T11:05:10.592Z,25.84
2022-08-07T11:07:58.809Z,25.58
2022-08-07T11:10:40.513Z,25.76
2022-08-07T11:14:46.296Z,25.45
2022-08-07T11:16:11.284Z,25.37
2022-08-07T11:18:51.048Z,25.57
2022-08-07T11:21:32.980Z,25.07
2022-08-07T11:24:21.836Z,25.35
2022-08-07T11:27:01.205Z,25.15
2022-08-07T11:29:42.053Z,25.03
2022-08-07T11:32:25.348Z,25.11
2022-08-07T11:34:58.765Z,25.25
2022-08-07T11:38:09.964Z,25.01
2022-08-07T11:41:00.095Z,25.07
2022-08-07T11:43:54.981Z,25.27
2022-08-07T11:46:40.405Z,24.95
2022-08-07T11:50:32.321Z,24.91
2022-08-07T11:53:05.142Z,24.76
2022-08-07T11:56:13.983Z,25.26
2022-08-07T11:59:02.298Z,25.06
2022-08-07T12:01:58.662Z,25.21
2022-08-07T12:04:58.251Z,25.14
2022-08-07T12:07:39.098Z,25.04
2022-08-07T12:10:20.592Z,24.97
2022-08-07T12:13:01.819Z,24.99
2022-08-07T12:16:05.942Z,24.65
2022-08-07T12:18:45.461Z,24.53
2022-08-07T12:22:38.144Z,24.68
2022-08-07T12:24:37.663Z,24.76
2022-08-07T12:27:16.167Z,24.68
2022-08-07T12:29:55.086Z,24.63
2022-08-07T12:32:32.127Z,24.75
2022-08-07T12:35:08.275Z,24.66
2022-08-07T12:38:09.600Z,25.04
2022-08-07T12:40:50.048Z,24.87
2022-08-07T12:44:02.111Z,24.92
2022-08-07T12:46:32.400Z,25.08
2022-08-07T12:49:25.625Z,24.87
2022-08-07T12:52:14.681Z,24.52
2022-08-07T12:55:03.829Z,24.59
2022-08-07T12:57:38.938Z,24.76
2022-08-07T13:00:49.612Z,24.63
2022-08-07T13:04:00.508Z,24.12
2022-08-07T13:07:10.199Z,23.82
2022-08-07T13:10:38.104Z,23.49
2022-08-07T13:13:48.409Z,23.05
2022-08-07T13:16:30.762Z,22.01
2022-08-07T13:19:11.390Z,21.69
2022-08-07T13:22:00.609Z,21.68
2022-08-07T13:24:52.537Z,21.59
2022-08-07T13:28:05.930Z,21.52
2022-08-07T13:30:40.358Z,21.12
2022-08-07T13:34:30.740Z,21.00
2022-08-07T13:36:18.083Z,21.06
2022-08-07T13:38:56.953Z,20.91
2022-08-07T13:41:35.909Z,20.71
2022-08-07T13:44:12.882Z,20.08
2022-08-07T13:46:49.431Z,20.07
2022-08-07T13:50:34.239Z,19.86
2022-08-07T13:52:27.160Z,19.93
2022-08-07T13:55:13.191Z,19.81
2022-08-07T13:58:02.207Z,19.46
2022-08-07T14:00:54.321Z,18.47
2022-08-07T14:03:29.981Z,18.71
2022-08-07T14:06:17.710Z,18.75
2022-08-07T14:08:53.712Z,18.11
2022-08-07T14:11:27.970Z,17.92
2022-08-07T14:14:17.970Z,17.22
2022-08-07T14:16:49.848Z,16.61
2022-08-07T14:20:40.518Z,17.20
2022-08-07T14:22:34.141Z,16.62
2022-08-07T14:25:11.310Z,16.83
2022-08-07T14:30:40.740Z,16.91
2022-08-07T14:33:10.395Z,16.61
2022-08-07T14:35:47.509Z,16.16
2022-08-07T14:38:31.056Z,16.03
2022-08-07T14:41:03.840Z,15.70
2022-08-07T14:43:58.187Z,15.21
2022-08-07T14:46:32.049Z,14.89
2022-08-07T14:49:56.133Z,14.44
2022-08-07T14:52:03.368Z,14.52
2022-08-07T14:54:43.382Z,14.69
2022-08-07T14:57:19.477Z,14.70
2022-08-07T15:00:03.197Z,14.75
2022-08-07T15:05:26.988Z,14.69
2022-08-07T15:08:00.705Z,14.46
2022-08-07T15:10:31.987Z,15.14
2022-08-07T15:13:04.854Z,15.80
2022-08-07T15:15:40.724Z,16.22
2022-08-07T15:18:33.955Z,16.79
2022-08-07T15:21:43.936Z,16.75
2022-08-07T15:25:16.168Z,17.48
2022-08-07T15:27:04.952Z,17.95
2022-08-07T15:38:29.519Z,19.69
2022-08-07T15:41:24.235Z,20.31
2022-08-07T15:44:05.084Z,20.51
2022-08-07T15:46:47.388Z,21.01
2022-08-07T15:50:04.877Z,20.91
2022-08-07T15:52:17.168Z,21.68
2022-08-07T15:54:51.522Z,21.59
2022-08-07T15:57:39.267Z,22.12
2022-08-07T16:00:31.002Z,22.05
2022-08-07T16:03:05.808Z,22.09
2022-08-07T16:05:36.149Z,22.80
2022-08-07T16:08:33.055Z,22.90
2022-08-07T16:11:26.844Z,22.96
2022-08-07T16:14:09.057Z,23.20
2022-08-07T16:17:02.738Z,23.12
2022-08-07T16:20:03.933Z,23.50
2022-08-07T16:23:09.693Z,23.62
2022-08-07T16:25:56.606Z,23.88
2022-08-07T16:30:07.034Z,23.98
2022-08-07T16:31:50.950Z,24.09
2022-08-07T16:34:39.641Z,24.15
2022-08-07T16:38:06.070Z,24.29
2022-08-07T16:41:04.546Z,24.42
2022-08-07T16:44:46.191Z,24.45
2022-08-07T16:47:45.521Z,24.75
2022-08-07T16:51:21.012Z,24.76
2022-08-07T16:54:19.213Z,24.97
2022-08-07T16:57:03.231Z,25.02
2022-08-07T16:59:51.391Z,24.98
2022-08-07T17:02:53.432Z,25.14
2022-08-07T17:06:19.850Z,25.23
2022-08-07T17:09:10.861Z,25.37
2022-08-07T17:12:01.786Z,25.81
2022-08-07T17:14:49.572Z,25.54
2022-08-07T17:17:46.917Z,26.10
2022-08-07T17:20:30.886Z,26.21
2022-08-07T17:23:13.115Z,26.12
2022-08-07T17:25:57.266Z,26.86
2022-08-07T17:28:35.596Z,28.33
2022-08-07T17:31:15.618Z,28.65
2022-08-07T17:34:18.187Z,29.48
2022-08-07T17:36:57.660Z,30.23
2022-08-07T17:39:58.760Z,31.06
2022-08-07T17:42:59.066Z,31.45
2022-08-07T17:45:35.136Z,31.30
2022-08-07T17:48:12.757Z,31.97
2022-08-07T17:50:58.712Z,32.26
2022-08-07T17:54:01.272Z,32.22
2022-08-07T17:56:49.477Z,32.73
2022-08-07T17:59:26.674Z,33.00
2022-08-07T18:02:15.199Z,32.90
2022-08-07T18:04:55.168Z,33.23
2022-08-07T18:07:43.630Z,33.39
2022-08-07T18:10:28.635Z,33.61
2022-08-07T18:13:40.434Z,33.74
2022-08-07T18:16:30.792Z,33.73
2022-08-07T18:21:07.462Z,33.48
2022-08-07T18:22:14.964Z,33.72
2022-08-07T18:24:51.259Z,33.66
2022-08-07T18:27:38.562Z,34.17
2022-08-07T18:30:31.691Z,34.25
2022-08-07T18:34:05.018Z,33.95
2022-08-07T18:37:14.622Z,34.27
2022-08-07T18:40:42.592Z,34.41
2022-08-07T18:43:14.913Z,34.41
2022-08-07T18:46:21.810Z,34.95
2022-08-07T18:50:05.829Z,34.85
2022-08-07T18:52:33.922Z,34.88
2022-08-07T18:54:50.949Z,34.81
2022-08-07T18:57:40.681Z,34.87
2022-08-07T19:00:34.593Z,34.83
2022-08-07T19:03:15.796Z,34.70
2022-08-07T19:06:03.497Z,34.59
2022-08-07T19:08:58.846Z,35.25
2022-08-07T19:12:04.651Z,35.57
2022-08-07T19:15:00.553Z,35.41
2022-08-07T19:18:01.034Z,35.56
2022-08-07T19:21:09.697Z,35.35
2022-08-07T19:23:59.290Z,35.74
2022-08-07T19:26:55.563Z,35.16
2022-08-07T19:31:05.415Z,35.00
2022-08-07T19:32:26.031Z,35.06
2022-08-07T19:35:03.461Z,35.44
2022-08-07T19:37:56.562Z,35.00
2022-08-07T19:40:30.769Z,34.74
2022-08-07T19:43:00.978Z,34.87
2022-08-07T19:46:04.978Z,34.57
2022-08-07T19:48:42.605Z,34.52
2022-08-07T19:51:20.172Z,34.79
2022-08-07T19:54:30.988Z,34.65
2022-08-07T19:58:00.784Z,34.52
2022-08-07T19:59:44.093Z,34.62
2022-08-07T20:02:19.955Z,34.37
2022-08-07T20:04:51.968Z,34.47
2022-08-07T20:07:47.839Z,34.29
2022-08-07T20:10:38.365Z,34.44
2022-08-07T20:13:27.044Z,34.30
2022-08-07T20:16:03.973Z,33.97
2022-08-07T20:18:35.828Z,34.36
2022-08-07T20:21:20.966Z,34.31
2022-08-07T20:23:57.798Z,34.15
2022-08-07T20:26:44.858Z,33.94
2022-08-07T20:29:47.901Z,33.77
2022-08-07T20:32:11.593Z,33.40
2022-08-07T20:34:55.967Z,33.35
2022-08-07T20:37:34.155Z,33.61
2022-08-07T20:40:32.951Z,33.18
2022-08-07T20:43:09.474Z,33.35
2022-08-07T20:46:26.439Z,33.44
2022-08-07T20:48:37.418Z,33.19
2022-08-07T20:51:09.622Z,33.31
2022-08-07T20:54:03.458Z,33.06
2022-08-07T20:56:34.968Z,33.21
2022-08-07T21:00:05.565Z,33.53
2022-08-07T21:01:58.380Z,33.40
2022-08-07T21:04:31.733Z,33.51
2022-08-07T21:07:03.928Z,33.45
2022-08-07T21:09:52.453Z,33.66
2022-08-07T21:12:31.569Z,33.49
2022-08-07T21:15:08.029Z,33.58
2022-08-07T21:18:28.104Z,33.67
2022-08-07T21:20:30.389Z,33.68
2022-08-07T21:23:08.929Z,33.60
2022-08-07T21:26:01.382Z,33.71
2022-08-07T21:28:48.362Z,33.43
2022-08-07T21:31:31.423Z,33.91
2022-08-07T21:34:32.334Z,33.58
2022-08-07T21:37:08.826Z,33.73
2022-08-07T21:39:51.489Z,33.70
2022-08-07T21:42:42.391Z,33.77
2022-08-07T21:46:09.179Z,33.59
2022-08-07T21:48:34.411Z,33.72
2022-08-07T21:51:19.409Z,33.48
2022-08-07T21:53:54.165Z,33.57
2022-08-07T21:56:40.195Z,33.68
2022-08-07T21:59:36.311Z,33.72
2022-08-07T22:02:31.061Z,33.44
2022-08-07T22:05:04.667Z,33.67
2022-08-07T22:07:59.452Z,33.64
2022-08-07T22:10:32.828Z,33.60
2022-08-07T22:13:09.169Z,33.87
2022-08-07T22:16:43.355Z,33.72
2022-08-07T22:18:44.245Z,33.70
2022-08-07T22:21:20.633Z,33.45
2022-08-07T22:23:58.122Z,33.51
2022-08-07T22:26:44.242Z,33.55
2022-08-07T22:29:38.025Z,33.47
2022-08-07T22:32:25.457Z,33.63
2022-08-07T22:34:57.341Z,33.52
2022-08-07T22:38:03.888Z,33.56
2022-08-07T22:40:42.196Z,33.55
2022-08-07T22:43:13.589Z,33.57
2022-08-07T22:46:42.727Z,33.81
2022-08-07T22:49:19.111Z,33.88
2022-08-07T22:52:06.947Z,33.62
2022-08-07T22:55:17.320Z,33.93
2022-08-07T22:58:34.301Z,34.12
2022-08-07T23:01:49.696Z,34.13
2022-08-07T23:06:10.235Z,34.14
2022-08-07T23:07:59.405Z,34.20
2022-08-07T23:10:43.235Z,34.01
2022-08-07T23:13:48.860Z,34.31
2022-08-07T23:16:55.896Z,34.09
2022-08-07T23:19:57.761Z,34.28
2022-08-07T23:22:45.444Z,34.61
2022-08-07T23:25:29.585Z,34.77
2022-08-07T23:28:37.688Z,34.74
2022-08-07T23:32:49.188Z,34.77
2022-08-07T23:34:52.860Z,34.92
2022-08-07T23:38:19.402Z,35.29
2022-08-07T23:41:32.992Z,35.25
2022-08-07T23:44:35.106Z,35.13
2022-08-07T23:47:47.805Z,35.49
2022-08-07T23:50:37.342Z,35.38
2022-08-07T23:53:49.724Z,35.54
2022-08-07T23:56:27.621Z,35.12
2022-08-07T23:59:10.819Z,35.27
